createdAt,value
2022-12-01T00:00:01.058Z,568.2
2022-12-01T00:01:03.536Z,568.6
2022-12-01T00:02:06.688Z,569
2022-12-01T00:03:10.231Z,568.7
2022-12-01T00:04:12.789Z,568.9
2022-12-01T00:05:14.730Z,568.7
2022-12-01T00:06:17.250Z,568.8
2022-12-01T00:07:20.237Z,569.3
2022-12-01T00:08:22.747Z,569
2022-12-01T00:09:25.238Z,569.1
2022-12-01T00:10:27.754Z,569.4
2022-12-01T00:11:30.234Z,569.6
2022-12-01T00:12:32.174Z,569.7
2022-12-01T00:13:34.388Z,570
2022-12-01T00:14:36.880Z,569.9
2022-12-01T00:15:39.395Z,569.7
2022-12-01T00:16:42.095Z,570
2022-12-01T00:17:44.587Z,569.8
2022-12-01T00:18:47.073Z,569.9
2022-12-01T00:19:51.048Z,570.1
2022-12-01T00:20:53.326Z,570.2
2022-12-01T00:21:55.845Z,570.1
2022-12-01T00:22:58.135Z,570.6
2022-12-01T00:24:00.070Z,570.4
2022-12-01T00:25:01.736Z,570.3
2022-12-01T00:26:04.323Z,570.6
2022-12-01T00:27:06.393Z,570.6
2022-12-01T00:28:08.876Z,570.8
2022-12-01T00:29:11.099Z,570.8
2022-12-01T00:30:13.679Z,570.6
2022-12-01T00:31:16.631Z,570.7
2022-12-01T00:32:19.078Z,570.4
2022-12-01T00:33:21.314Z,570.4
2022-12-01T00:34:23.514Z,570.4
2022-12-01T00:35:25.992Z,570.6
2022-12-01T00:36:28.476Z,570.8
2022-12-01T00:37:30.947Z,571.3
2022-12-01T00:38:33.513Z,571
2022-12-01T00:39:35.736Z,571
2022-12-01T00:40:38.222Z,571
2022-12-01T00:41:40.125Z,570.9
2022-12-01T00:42:42.614Z,570.9
2022-12-01T00:43:45.113Z,570.6
2022-12-01T00:44:47.631Z,570.9
2022-12-01T00:45:50.237Z,571.2
2022-12-01T00:46:52.776Z,571
2022-12-01T00:47:55.262Z,570.9
2022-12-01T00:48:57.748Z,571
2022-12-01T00:50:00.253Z,570.4
2022-12-01T00:51:02.745Z,570.6
2022-12-01T00:52:04.951Z,570.5
2022-12-01T00:53:07.481Z,570.6
2022-12-01T00:54:10.050Z,570.6
2022-12-01T00:55:12.535Z,570.6
2022-12-01T00:56:15.011Z,570.5
2022-12-01T00:57:17.509Z,570.5
2022-12-01T00:58:20.013Z,570.2
2022-12-01T00:59:22.220Z,570.6
2022-12-01T01:00:24.693Z,570.1
2022-12-01T01:01:27.537Z,570.2
2022-12-01T01:02:30.476Z,570.6
2022-12-01T01:03:32.994Z,570.3
2022-12-01T01:04:35.469Z,570.3
2022-12-01T01:05:37.995Z,570.4
2022-12-01T01:06:40.221Z,570.2
2022-12-01T01:07:42.875Z,569.9
2022-12-01T01:08:45.407Z,570.3
2022-12-01T01:09:49.751Z,570.6
2022-12-01T01:10:52.416Z,569.8
2022-12-01T01:11:54.902Z,570
2022-12-01T01:12:57.099Z,570.1
2022-12-01T01:13:59.588Z,570.1
2022-12-01T01:15:02.096Z,570.1
2022-12-01T01:16:04.064Z,570.4
2022-12-01T01:17:06.831Z,570.2
2022-12-01T01:18:09.409Z,570.3
2022-12-01T01:19:10.793Z,570
2022-12-01T01:20:13.274Z,570.3
2022-12-01T01:21:15.467Z,570.3
2022-12-01T01:22:17.648Z,570.6
2022-12-01T01:23:19.859Z,570.3
2022-12-01T01:24:22.349Z,570.3
2022-12-01T01:25:24.623Z,570.7
2022-12-01T01:26:27.099Z,570.5
2022-12-01T01:27:29.570Z,570.7
2022-12-01T01:28:32.039Z,570.6
2022-12-01T01:29:50.236Z,570.8
2022-12-01T01:30:52.909Z,570.7
2022-12-01T01:31:55.464Z,570.9
2022-12-01T01:32:57.960Z,570.9
2022-12-01T01:33:59.912Z,570.4
2022-12-01T01:35:02.098Z,570.9
2022-12-01T01:36:04.604Z,570.8
2022-12-01T01:37:07.091Z,570.7
2022-12-01T01:38:09.299Z,570.8
2022-12-01T01:39:11.783Z,570.5
2022-12-01T01:40:13.985Z,570.5
2022-12-01T01:41:16.282Z,570.6
2022-12-01T01:42:18.208Z,571
2022-12-01T01:43:20.705Z,571
2022-12-01T01:44:23.193Z,570.8
2022-12-01T01:45:25.141Z,570.4
2022-12-01T01:46:27.604Z,570.6
2022-12-01T01:47:30.123Z,570.7
2022-12-01T01:48:32.307Z,570.6
2022-12-01T01:49:34.561Z,570.8
2022-12-01T01:50:37.049Z,570.1
2022-12-01T01:51:39.231Z,570.1
2022-12-01T01:52:41.414Z,570.5
2022-12-01T01:53:43.346Z,570.5
2022-12-01T01:54:45.564Z,570.1
2022-12-01T01:55:47.779Z,570.4
2022-12-01T01:56:50.348Z,569.7
2022-12-01T01:57:52.553Z,570.2
2022-12-01T01:58:54.740Z,570.4
2022-12-01T01:59:57.213Z,570.4
2022-12-01T02:00:59.975Z,570.7
2022-12-01T02:02:02.656Z,570.4
2022-12-01T02:03:04.895Z,570.3
2022-12-01T02:04:07.367Z,570.1
2022-12-01T02:05:09.895Z,569.7
2022-12-01T02:06:12.367Z,569.7
2022-12-01T02:07:14.017Z,570.1
2022-12-01T02:08:16.194Z,569.9
2022-12-01T02:09:18.679Z,570.2
2022-12-01T02:10:21.152Z,570.4
2022-12-01T02:11:23.645Z,570.4
2022-12-01T02:12:25.947Z,571
2022-12-01T02:13:28.143Z,570.5
2022-12-01T02:14:30.625Z,570.9
2022-12-01T02:15:32.845Z,570.7
2022-12-01T02:16:35.660Z,571
2022-12-01T02:18:42.877Z,570.8
2022-12-01T02:19:45.466Z,571.3
2022-12-01T02:20:48.090Z,571.6
2022-12-01T02:21:50.643Z,571.9
2022-12-01T02:23:58.118Z,572.1
2022-12-01T02:25:00.614Z,572
2022-12-01T02:26:02.811Z,571.5
2022-12-01T02:27:04.739Z,571.4
2022-12-01T02:28:07.326Z,571.4
2022-12-01T02:29:09.792Z,571.6
2022-12-01T02:30:12.288Z,571.3
2022-12-01T02:32:19.759Z,571.3
2022-12-01T02:33:21.699Z,570.9
2022-12-01T02:34:24.175Z,571
2022-12-01T02:35:26.078Z,571
2022-12-01T02:36:28.588Z,570.8
2022-12-01T02:37:31.080Z,570.9
2022-12-01T02:38:33.284Z,570.8
2022-12-01T02:39:35.196Z,570.7
2022-12-01T02:40:37.667Z,571.2
2022-12-01T02:41:39.849Z,571.1
2022-12-01T02:42:42.347Z,571.4
2022-12-01T02:43:44.980Z,571.1
2022-12-01T02:44:47.461Z,570.6
2022-12-01T02:45:50.388Z,571.2
2022-12-01T02:46:52.609Z,571.4
2022-12-01T02:47:54.815Z,571.3
2022-12-01T02:48:57.295Z,571.6
2022-12-01T02:49:59.209Z,571.4
2022-12-01T02:51:01.699Z,571.5
2022-12-01T02:52:04.219Z,571.5
2022-12-01T02:53:06.706Z,571.8
2022-12-01T02:54:08.936Z,572.4
2022-12-01T02:55:11.138Z,571.8
2022-12-01T02:56:13.336Z,571.9
2022-12-01T02:57:15.541Z,572.3
2022-12-01T02:58:18.022Z,572.4
2022-12-01T02:59:20.319Z,572.2
2022-12-01T03:00:22.516Z,572
2022-12-01T03:01:25.095Z,572.3
2022-12-01T03:02:27.928Z,572.1
2022-12-01T03:03:30.147Z,572.3
2022-12-01T03:04:32.634Z,572.1
2022-12-01T03:05:34.846Z,572.4
2022-12-01T03:06:36.775Z,572.4
2022-12-01T03:07:39.618Z,572.4
2022-12-01T03:08:41.873Z,572.4
2022-12-01T03:09:44.361Z,572.8
2022-12-01T03:10:46.851Z,573.2
2022-12-01T03:11:49.057Z,572.8
2022-12-01T03:12:51.242Z,572.6
2022-12-01T03:13:53.719Z,572.5
2022-12-01T03:14:56.281Z,572.3
2022-12-01T03:15:59.144Z,572.2
2022-12-01T03:17:01.638Z,572.4
2022-12-01T03:18:04.125Z,572
2022-12-01T03:19:06.613Z,572.1
2022-12-01T03:20:08.935Z,571.6
2022-12-01T03:21:11.404Z,572
2022-12-01T03:22:13.896Z,572
2022-12-01T03:23:16.413Z,572.5
2022-12-01T03:24:18.360Z,572.1
2022-12-01T03:25:20.582Z,572.2
2022-12-01T03:26:22.768Z,572.5
2022-12-01T03:27:25.256Z,573
2022-12-01T03:28:27.723Z,573.3
2022-12-01T03:29:29.948Z,573.5
2022-12-01T03:30:32.538Z,573.7
2022-12-01T03:31:35.715Z,573.8
2022-12-01T03:32:38.224Z,573.3
2022-12-01T03:33:40.420Z,573.2
2022-12-01T03:34:42.608Z,573
2022-12-01T03:35:44.811Z,573.3
2022-12-01T03:36:47.278Z,573.3
2022-12-01T03:37:49.508Z,573.1
2022-12-01T03:38:51.746Z,573.2
2022-12-01T03:40:58.922Z,572.8
2022-12-01T03:42:01.138Z,572.7
2022-12-01T03:43:03.350Z,572.9
2022-12-01T03:44:05.826Z,573
2022-12-01T03:45:08.014Z,572.6
2022-12-01T03:46:11.081Z,572.5
2022-12-01T03:47:13.584Z,572.2
2022-12-01T03:48:15.247Z,572.1
2022-12-01T03:49:17.828Z,572.1
2022-12-01T03:50:20.095Z,572.4
2022-12-01T03:51:22.613Z,572.5
2022-12-01T03:52:24.837Z,571.8
2022-12-01T03:53:27.310Z,571.9
2022-12-01T03:54:29.811Z,571.8
2022-12-01T03:55:32.289Z,571.6
2022-12-01T03:56:34.807Z,571.6
2022-12-01T03:57:36.923Z,572
2022-12-01T03:58:39.403Z,571.8
2022-12-01T03:59:41.884Z,572.3
2022-12-01T04:00:44.084Z,572.3
2022-12-01T04:01:47.144Z,572.1
2022-12-01T04:02:49.817Z,571.9
2022-12-01T04:03:52.315Z,571.9
2022-12-01T04:04:54.248Z,571.9
2022-12-01T04:05:56.452Z,571.8
2022-12-01T04:06:58.655Z,572
2022-12-01T04:08:01.695Z,571.8
2022-12-01T04:09:03.909Z,571.9
2022-12-01T04:10:06.420Z,571.5
2022-12-01T04:11:08.887Z,571.8
2022-12-01T04:12:11.360Z,571.6
2022-12-01T04:13:13.557Z,572
2022-12-01T04:14:15.489Z,571.7
2022-12-01T04:15:17.969Z,571.6
2022-12-01T04:16:20.808Z,571.7
2022-12-01T04:17:23.420Z,571.7
2022-12-01T04:18:25.620Z,571.5
2022-12-01T04:19:27.830Z,571.7
2022-12-01T04:20:30.325Z,571.6
2022-12-01T04:21:32.513Z,571.8
2022-12-01T04:22:35.003Z,571.8
2022-12-01T04:23:37.503Z,571.9
2022-12-01T04:24:39.707Z,571.9
2022-12-01T04:25:42.215Z,571.7
2022-12-01T04:26:43.929Z,571.6
2022-12-01T04:27:46.430Z,571.8
2022-12-01T04:28:48.908Z,571.8
2022-12-01T04:29:52.777Z,572.3
2022-12-01T04:30:55.306Z,571.8
2022-12-01T04:31:57.515Z,571.9
2022-12-01T04:33:00.098Z,571.9
2022-12-01T04:34:02.580Z,572.1
2022-12-01T04:35:04.800Z,571.9
2022-12-01T04:36:07.284Z,571.7
2022-12-01T04:37:09.488Z,572
2022-12-01T04:38:11.994Z,572
2022-12-01T04:39:14.476Z,572.1
2022-12-01T04:40:16.994Z,572.5
2022-12-01T04:41:19.515Z,572.4
2022-12-01T04:42:21.735Z,573
2022-12-01T04:43:24.242Z,572.7
2022-12-01T04:45:32.166Z,572.6
2022-12-01T04:46:35.093Z,572.6
2022-12-01T04:47:37.620Z,572.6
2022-12-01T04:48:39.953Z,572.6
2022-12-01T04:49:42.466Z,572.7
2022-12-01T04:50:44.946Z,572.8
2022-12-01T04:51:47.183Z,572.3
2022-12-01T04:52:49.383Z,572.5
2022-12-01T04:53:51.889Z,572.4
2022-12-01T04:54:53.556Z,572.2
2022-12-01T04:55:55.764Z,572.4
2022-12-01T04:56:58.262Z,572.4
2022-12-01T04:58:00.461Z,572.2
2022-12-01T04:59:02.662Z,572.3
2022-12-01T05:00:05.163Z,572.4
2022-12-01T05:01:07.956Z,572.1
2022-12-01T05:02:10.568Z,572
2022-12-01T05:04:18.215Z,572.1
2022-12-01T05:05:20.694Z,571.9
2022-12-01T05:06:22.893Z,571.7
2022-12-01T05:07:24.862Z,571.6
2022-12-01T05:08:27.087Z,571.4
2022-12-01T05:09:29.279Z,571.6
2022-12-01T05:10:31.484Z,571.3
2022-12-01T05:11:33.972Z,571.6
2022-12-01T05:12:36.212Z,571.5
2022-12-01T05:13:38.726Z,572
2022-12-01T05:14:40.939Z,571.5
2022-12-01T05:15:43.426Z,571.4
2022-12-01T05:16:46.496Z,571.4
2022-12-01T05:17:49.003Z,571
2022-12-01T05:18:51.377Z,570.9
2022-12-01T05:19:54.017Z,571.3
2022-12-01T05:20:56.243Z,571.3
2022-12-01T05:21:58.727Z,570.9
2022-12-01T05:24:06.198Z,570.9
2022-12-01T05:25:08.819Z,571.2
2022-12-01T05:26:10.757Z,571
2022-12-01T05:27:13.231Z,571.1
2022-12-01T05:28:15.468Z,571.2
2022-12-01T05:29:17.685Z,571.2
2022-12-01T05:31:29.031Z,571
2022-12-01T05:32:31.015Z,571.3
2022-12-01T05:33:33.531Z,571.1
2022-12-01T05:34:35.746Z,571.4
2022-12-01T05:35:38.331Z,571.1
2022-12-01T05:36:40.588Z,570.9
2022-12-01T05:37:43.070Z,571.4
2022-12-01T05:38:45.284Z,571.3
2022-12-01T05:39:49.446Z,571.4
2022-12-01T05:40:52.091Z,571.5
2022-12-01T05:41:54.576Z,571.4
2022-12-01T05:42:57.064Z,571.3
2022-12-01T05:43:59.305Z,572
2022-12-01T05:45:01.505Z,571.6
2022-12-01T05:46:04.069Z,571.7
2022-12-01T05:47:06.304Z,571.4
2022-12-01T05:48:08.523Z,571.6
2022-12-01T05:49:11.251Z,571.6
2022-12-01T05:50:13.764Z,571.6
2022-12-01T05:51:16.416Z,571.3
2022-12-01T05:52:18.897Z,571.6
2022-12-01T05:53:21.104Z,571.4
2022-12-01T05:54:23.589Z,572.1
2022-12-01T05:55:25.787Z,571.5
2022-12-01T05:56:28.270Z,571.7
2022-12-01T05:57:30.468Z,571.4
2022-12-01T05:58:32.947Z,571.4
2022-12-01T05:59:35.442Z,571
2022-12-01T06:01:42.865Z,570.9
2022-12-01T06:02:45.133Z,570.8
2022-12-01T06:03:47.696Z,570.6
2022-12-01T06:04:49.947Z,570.9
2022-12-01T06:05:52.143Z,570.8
2022-12-01T06:06:54.464Z,570.6
2022-12-01T06:07:57.134Z,571.2
2022-12-01T06:08:59.349Z,571
2022-12-01T06:10:01.861Z,570.8
2022-12-01T06:11:03.806Z,571
2022-12-01T06:12:06.287Z,570.8
2022-12-01T06:13:08.760Z,570.8
2022-12-01T06:14:11.302Z,570.7
2022-12-01T06:15:13.524Z,570.4
2022-12-01T06:16:16.057Z,570.5
2022-12-01T06:17:18.338Z,570.6
2022-12-01T06:18:20.994Z,570.2
2022-12-01T06:19:23.475Z,570.2
2022-12-01T06:20:25.400Z,570.2
2022-12-01T06:21:27.318Z,569.9
2022-12-01T06:22:29.884Z,570.6
2022-12-01T06:23:32.626Z,570.4
2022-12-01T06:24:35.131Z,570
2022-12-01T06:25:37.341Z,570.4
2022-12-01T06:26:39.545Z,570.6
2022-12-01T06:27:42.026Z,570.6
2022-12-01T06:28:44.223Z,570.5
2022-12-01T06:29:46.130Z,570.1
2022-12-01T06:30:48.392Z,570.4
2022-12-01T06:31:51.014Z,570.2
2022-12-01T06:32:53.633Z,570
2022-12-01T06:33:56.115Z,570.2
2022-12-01T06:34:58.337Z,569.5
2022-12-01T06:36:00.003Z,569.7
2022-12-01T06:37:02.237Z,569.4
2022-12-01T06:38:04.807Z,569.2
2022-12-01T06:39:07.005Z,568.9
2022-12-01T06:40:09.575Z,568.8
2022-12-01T06:41:12.049Z,569
2022-12-01T06:42:14.247Z,568.9
2022-12-01T06:43:16.500Z,568.8
2022-12-01T06:44:18.425Z,568.9
2022-12-01T06:45:20.642Z,568.9
2022-12-01T06:46:23.451Z,569.1
2022-12-01T06:47:25.407Z,568.8
2022-12-01T06:48:27.880Z,568.4
2022-12-01T06:49:30.374Z,568.5
2022-12-01T06:50:32.000Z,568.5
2022-12-01T06:51:34.198Z,568.7
2022-12-01T06:52:36.401Z,568.5
2022-12-01T06:53:38.978Z,568.8
2022-12-01T06:54:42.099Z,568.8
2022-12-01T06:55:44.971Z,568.8
2022-12-01T06:56:48.964Z,568.6
2022-12-01T06:57:52.065Z,568.6
2022-12-01T06:58:55.701Z,568.7
2022-12-01T06:59:59.704Z,568.6
2022-12-01T07:01:02.801Z,568.8
2022-12-01T07:02:05.728Z,568.5
2022-12-01T07:03:08.263Z,568.4
2022-12-01T07:04:10.729Z,568.5
2022-12-01T07:05:13.228Z,568.7
2022-12-01T07:06:15.425Z,568.8
2022-12-01T07:07:17.901Z,569
2022-12-01T07:08:20.527Z,568.8
2022-12-01T07:09:23.095Z,569.1
2022-12-01T07:10:25.561Z,568.9
2022-12-01T07:11:27.488Z,568.5
2022-12-01T07:12:29.672Z,568.5
2022-12-01T07:14:36.302Z,568.5
2022-12-01T07:15:38.230Z,569
2022-12-01T07:16:40.775Z,569
2022-12-01T07:17:43.362Z,568.7
2022-12-01T07:18:45.587Z,568.4
2022-12-01T07:19:49.681Z,568.2
2022-12-01T07:20:52.368Z,568.5
2022-12-01T07:21:54.545Z,568.7
2022-12-01T07:22:56.765Z,568.6
2022-12-01T07:23:59.234Z,568.5
2022-12-01T07:25:01.804Z,568.6
2022-12-01T07:26:04.287Z,568.5
2022-12-01T07:27:06.485Z,568.5
2022-12-01T07:28:08.667Z,568.5
2022-12-01T07:29:11.084Z,568
2022-12-01T07:30:13.298Z,567.9
2022-12-01T07:31:16.027Z,568
2022-12-01T07:32:18.297Z,567.7
2022-12-01T07:33:20.532Z,567.7
2022-12-01T07:34:23.006Z,567.7
2022-12-01T07:35:25.214Z,567.7
2022-12-01T07:36:27.411Z,567.3
2022-12-01T07:37:29.892Z,567.6
2022-12-01T07:38:32.091Z,567.4
2022-12-01T07:39:34.571Z,567.4
2022-12-01T07:40:36.879Z,567
2022-12-01T07:41:39.360Z,567.2
2022-12-01T07:42:41.579Z,567.2
2022-12-01T07:43:43.789Z,567.5
2022-12-01T07:44:45.996Z,567.5
2022-12-01T07:45:48.260Z,567.4
2022-12-01T07:46:50.811Z,567.4
2022-12-01T07:47:53.289Z,567.4
2022-12-01T07:48:55.809Z,566.9
2022-12-01T07:49:58.332Z,567.5
2022-12-01T07:51:00.932Z,567.1
2022-12-01T07:52:03.147Z,567
2022-12-01T07:53:05.384Z,567.2
2022-12-01T07:54:07.312Z,566.9
2022-12-01T07:55:09.524Z,567.4
2022-12-01T07:56:12.119Z,567.3
2022-12-01T07:57:14.391Z,567.2
2022-12-01T07:58:16.353Z,567.3
2022-12-01T07:59:18.839Z,567.1
2022-12-01T08:00:21.353Z,567
2022-12-01T08:01:23.756Z,567.2
2022-12-01T08:02:26.278Z,567
2022-12-01T08:03:28.770Z,566.7
2022-12-01T08:04:31.302Z,566.7
2022-12-01T08:05:33.802Z,566.9
2022-12-01T08:06:36.305Z,566.8
2022-12-01T08:07:39.149Z,566.5
2022-12-01T08:08:41.799Z,566.6
2022-12-01T08:09:44.282Z,566.5
2022-12-01T08:10:46.518Z,567.1
2022-12-01T08:11:49.392Z,566.6
2022-12-01T08:12:51.871Z,566.3
2022-12-01T08:13:54.355Z,566.2
2022-12-01T08:14:56.835Z,566.5
2022-12-01T08:15:59.822Z,566.3
2022-12-01T08:17:02.114Z,566.3
2022-12-01T08:18:04.606Z,566.2
2022-12-01T08:19:06.529Z,566.2
2022-12-01T08:20:08.796Z,566.1
2022-12-01T08:21:11.035Z,565.8
2022-12-01T08:22:13.237Z,565.7
2022-12-01T08:23:15.475Z,564.9
2022-12-01T08:24:17.951Z,565.8
2022-12-01T08:25:20.171Z,565.6
2022-12-01T08:26:22.665Z,565.7
2022-12-01T08:27:25.267Z,565.7
2022-12-01T08:28:27.780Z,565.8
2022-12-01T08:29:30.259Z,566.3
2022-12-01T08:30:32.733Z,565.9
2022-12-01T08:31:35.565Z,565.9
2022-12-01T08:32:38.110Z,565.9
2022-12-01T08:33:40.598Z,566.1
2022-12-01T08:34:42.799Z,565.9
2022-12-01T08:35:45.054Z,566.2
2022-12-01T08:36:47.543Z,566
2022-12-01T08:37:49.727Z,566.3
2022-12-01T08:38:52.229Z,566
2022-12-01T08:39:54.705Z,566
2022-12-01T08:40:57.196Z,566.2
2022-12-01T08:41:59.418Z,566.3
2022-12-01T08:43:02.082Z,566.2
2022-12-01T08:44:04.611Z,566.7
2022-12-01T08:45:07.123Z,566.1
2022-12-01T08:46:09.585Z,566.3
2022-12-01T08:48:19.318Z,565.8
2022-12-01T08:49:21.825Z,565.8
2022-12-01T08:50:24.508Z,566
2022-12-01T08:51:27.058Z,565.8
2022-12-01T08:52:29.284Z,565.8
2022-12-01T08:53:31.775Z,565.8
2022-12-01T08:54:34.262Z,565.8
2022-12-01T08:55:36.470Z,566.2
2022-12-01T08:56:38.673Z,566.2
2022-12-01T08:57:40.636Z,566.4
2022-12-01T08:58:43.211Z,566.3
2022-12-01T08:59:45.711Z,566.2
2022-12-01T09:00:47.934Z,566.2
2022-12-01T09:01:50.741Z,565.9
2022-12-01T09:02:53.251Z,566.2
2022-12-01T09:03:55.806Z,566
2022-12-01T09:04:58.009Z,566.2
2022-12-01T09:06:00.494Z,566
2022-12-01T09:07:03.043Z,566.2
2022-12-01T09:08:05.606Z,566.3
2022-12-01T09:09:08.156Z,565.9
2022-12-01T09:10:10.647Z,566.3
2022-12-01T09:11:12.566Z,565.9
2022-12-01T09:12:14.791Z,566.1
2022-12-01T09:13:17.006Z,565.9
2022-12-01T09:14:19.610Z,565.8
2022-12-01T09:15:21.820Z,565.4
2022-12-01T09:16:24.212Z,565
2022-12-01T09:17:26.292Z,565.3
2022-12-01T09:18:27.655Z,565.6
2022-12-01T09:19:29.868Z,565.4
2022-12-01T09:20:32.358Z,565.4
2022-12-01T09:21:34.901Z,565.8
2022-12-01T09:22:37.431Z,565.7
2022-12-01T09:23:39.655Z,565.8
2022-12-01T09:24:41.900Z,565.8
2022-12-01T09:25:44.392Z,566
2022-12-01T09:26:46.308Z,565.1
2022-12-01T09:27:48.553Z,565.6
2022-12-01T09:28:50.818Z,565.5
2022-12-01T09:29:53.718Z,565.3
2022-12-01T09:30:56.455Z,565.8
2022-12-01T09:31:58.725Z,565.5
2022-12-01T09:33:01.231Z,565.2
2022-12-01T09:34:03.159Z,565.5
2022-12-01T09:35:05.380Z,565.4
2022-12-01T09:36:07.629Z,566.1
2022-12-01T09:37:09.551Z,565.6
2022-12-01T09:38:12.085Z,565.6
2022-12-01T09:39:14.291Z,565.4
2022-12-01T09:40:16.256Z,565.7
2022-12-01T09:41:18.783Z,565.2
2022-12-01T09:42:20.986Z,565.8
2022-12-01T09:43:23.198Z,565.7
2022-12-01T09:44:25.406Z,565.9
2022-12-01T09:45:28.028Z,566
2022-12-01T09:46:30.784Z,565.7
2022-12-01T09:47:33.337Z,566
2022-12-01T09:48:35.278Z,566
2022-12-01T09:49:37.233Z,565.7
2022-12-01T09:50:39.710Z,566
2022-12-01T09:51:41.923Z,565.9
2022-12-01T09:52:44.405Z,566.2
2022-12-01T09:53:46.939Z,566
2022-12-01T09:54:49.157Z,566.3
2022-12-01T09:55:51.361Z,566.5
2022-12-01T09:56:53.634Z,566.5
2022-12-01T09:57:55.854Z,566.6
2022-12-01T09:58:57.787Z,566.6
2022-12-01T10:00:00.313Z,567.2
2022-12-01T10:01:02.936Z,567.3
2022-12-01T10:02:05.892Z,567.4
2022-12-01T10:03:08.118Z,567.4
2022-12-01T10:04:10.593Z,567.7
2022-12-01T10:05:12.990Z,567.5
2022-12-01T10:07:20.717Z,567.6
2022-12-01T10:09:27.968Z,567.6
2022-12-01T10:10:30.191Z,567.6
2022-12-01T10:11:32.419Z,567.7
2022-12-01T10:12:34.642Z,568.3
2022-12-01T10:13:37.160Z,567.8
2022-12-01T10:14:39.678Z,567.9
2022-12-01T10:15:41.339Z,568
2022-12-01T10:16:44.230Z,568.2
2022-12-01T10:17:46.488Z,568.2
2022-12-01T10:18:48.407Z,568.6
2022-12-01T10:19:51.962Z,568.6
2022-12-01T10:20:54.040Z,568.8
2022-12-01T10:21:56.548Z,568.8
2022-12-01T10:22:59.062Z,568.9
2022-12-01T10:24:01.548Z,569
2022-12-01T10:25:03.796Z,569
2022-12-01T10:26:05.737Z,569.1
2022-12-01T10:27:08.219Z,569.5
2022-12-01T10:28:10.439Z,569.2
2022-12-01T10:29:12.918Z,569.1
2022-12-01T10:30:15.414Z,568.6
2022-12-01T10:31:17.971Z,568.8
2022-12-01T10:32:20.596Z,568.8
2022-12-01T10:33:22.792Z,569.3
2022-12-01T10:34:25.011Z,568.9
2022-12-01T10:35:27.233Z,569.2
2022-12-01T10:36:28.589Z,569.2
2022-12-01T10:37:30.812Z,569.6
2022-12-01T10:38:33.068Z,569.4
2022-12-01T10:39:35.271Z,568.9
2022-12-01T10:40:37.811Z,569.1
2022-12-01T10:41:39.470Z,569.1
2022-12-01T10:42:41.742Z,569.2
2022-12-01T10:43:44.220Z,569.2
2022-12-01T10:44:46.722Z,569.6
2022-12-01T10:45:49.281Z,569.7
2022-12-01T10:46:51.223Z,569.6
2022-12-01T10:48:58.829Z,570
2022-12-01T10:50:01.350Z,569.7
2022-12-01T10:51:03.280Z,570.1
2022-12-01T10:52:05.773Z,570
2022-12-01T10:53:08.264Z,569.8
2022-12-01T10:54:10.809Z,570.2
2022-12-01T10:55:13.302Z,570.2
2022-12-01T10:56:15.823Z,570.1
2022-12-01T10:57:18.032Z,570.2
2022-12-01T10:58:19.979Z,570.4
2022-12-01T10:59:22.184Z,570.4
2022-12-01T11:01:30.637Z,570.4
2022-12-01T11:02:34.509Z,570.4
2022-12-01T11:03:38.154Z,570.7
2022-12-01T11:04:40.912Z,570.8
2022-12-01T11:05:43.116Z,570.5
2022-12-01T11:06:45.060Z,570.9
2022-12-01T11:07:48.017Z,570.5
2022-12-01T11:08:50.021Z,571.1
2022-12-01T11:09:53.106Z,571.1
2022-12-01T11:10:55.035Z,571
2022-12-01T11:11:56.984Z,570.9
2022-12-01T11:12:59.190Z,570.7
2022-12-01T11:14:01.128Z,570.9
2022-12-01T11:15:03.342Z,571.1
2022-12-01T11:16:06.308Z,570.8
2022-12-01T11:17:08.878Z,570.6
2022-12-01T11:18:10.795Z,570.8
2022-12-01T11:19:13.420Z,571.1
2022-12-01T11:20:16.171Z,571.1
2022-12-01T11:21:18.421Z,571.4
2022-12-01T11:22:20.646Z,571.1
2022-12-01T11:23:22.964Z,571.4
2022-12-01T11:24:25.456Z,571.6
2022-12-01T11:25:27.661Z,571.3
2022-12-01T11:26:29.853Z,571.7
2022-12-01T11:27:32.361Z,571.4
2022-12-01T11:28:34.844Z,571.5
2022-12-01T11:29:37.378Z,571.5
2022-12-01T11:30:39.396Z,571.3
2022-12-01T11:31:41.802Z,571.8
2022-12-01T11:32:44.033Z,571.8
2022-12-01T11:33:46.520Z,571.6
2022-12-01T11:34:49.994Z,571.8
2022-12-01T11:35:52.832Z,572
2022-12-01T11:36:55.035Z,572.1
2022-12-01T11:39:02.247Z,572.2
2022-12-01T11:40:04.740Z,572.2
2022-12-01T11:41:07.307Z,572.3
2022-12-01T11:42:09.793Z,572.4
2022-12-01T11:43:12.037Z,572.4
2022-12-01T11:45:19.524Z,573
2022-12-01T11:46:21.973Z,572.3
2022-12-01T11:47:26.788Z,572.6
2022-12-01T11:48:28.448Z,572.6
2022-12-01T11:49:30.668Z,573.2
2022-12-01T11:50:33.165Z,572.9
2022-12-01T11:51:35.842Z,572.7
2022-12-01T11:52:37.550Z,572.9
2022-12-01T11:53:39.766Z,572.8
2022-12-01T11:54:41.999Z,572.7
2022-12-01T11:55:44.193Z,572.4
2022-12-01T11:56:50.043Z,572.3
2022-12-01T11:57:54.190Z,572.6
2022-12-01T11:58:56.829Z,572.4
2022-12-01T11:59:58.866Z,572.4
2022-12-01T12:01:01.098Z,572.7
2022-12-01T12:02:04.258Z,572.6
2022-12-01T12:03:06.877Z,572.4
2022-12-01T12:04:09.103Z,572.8
2022-12-01T12:05:11.038Z,572.7
2022-12-01T12:07:18.757Z,573.2
2022-12-01T12:08:20.966Z,572.5
2022-12-01T12:09:23.452Z,572.8
2022-12-01T12:10:26.393Z,572.6
2022-12-01T12:11:28.648Z,572.2
2022-12-01T12:12:30.836Z,572.9
2022-12-01T12:13:33.068Z,572.7
2022-12-01T12:14:35.301Z,572.7
2022-12-01T12:15:37.789Z,572.6
2022-12-01T12:16:40.025Z,572.9
2022-12-01T12:17:42.642Z,572.8
2022-12-01T12:18:45.146Z,572.9
2022-12-01T12:20:52.618Z,572.9
2022-12-01T12:21:55.119Z,573.2
2022-12-01T12:22:57.932Z,572.6
2022-12-01T12:24:00.416Z,572.8
2022-12-01T12:25:02.625Z,573.1
2022-12-01T12:26:05.132Z,573.2
2022-12-01T12:27:07.696Z,573.3
2022-12-01T12:28:09.890Z,573.5
2022-12-01T12:30:16.569Z,574.1
2022-12-01T12:31:19.509Z,574.2
2022-12-01T12:32:22.050Z,573.6
2022-12-01T12:33:23.724Z,573.8
2022-12-01T12:34:26.079Z,573.8
2022-12-01T12:35:28.279Z,574
2022-12-01T12:36:30.499Z,573.5
2022-12-01T12:37:33.022Z,574.3
2022-12-01T12:38:35.751Z,574
2022-12-01T12:39:37.969Z,574.2
2022-12-01T12:40:40.195Z,573.9
2022-12-01T12:41:42.107Z,574.2
2022-12-01T12:42:44.312Z,574.1
2022-12-01T12:43:46.494Z,574.3
2022-12-01T12:44:48.987Z,574.1
2022-12-01T12:45:51.564Z,574.2
2022-12-01T12:46:53.854Z,573.9
2022-12-01T12:47:56.395Z,574.3
2022-12-01T12:50:03.887Z,574.1
2022-12-01T12:51:06.094Z,574.2
2022-12-01T12:53:12.711Z,574.1
2022-12-01T12:54:15.577Z,574.1
2022-12-01T12:55:18.142Z,574.3
2022-12-01T12:56:20.626Z,574.4
2022-12-01T12:57:23.126Z,574.1
2022-12-01T12:58:25.353Z,574.2
2022-12-01T12:59:27.302Z,573.7
2022-12-01T13:00:29.547Z,574
2022-12-01T13:01:31.922Z,573.9
2022-12-01T13:02:34.632Z,574.1
2022-12-01T13:03:36.640Z,573.8
2022-12-01T13:04:39.219Z,574
2022-12-01T13:05:41.431Z,574
2022-12-01T13:06:43.776Z,573.9
2022-12-01T13:07:46.277Z,573.8
2022-12-01T13:08:48.784Z,573.8
2022-12-01T13:09:53.000Z,573.8
2022-12-01T13:10:55.643Z,573.9
2022-12-01T13:11:57.860Z,573.4
2022-12-01T13:13:00.120Z,573.8
2022-12-01T13:14:02.342Z,573.7
2022-12-01T13:15:04.563Z,573.6
2022-12-01T13:16:06.912Z,573.7
2022-12-01T13:17:09.160Z,573.6
2022-12-01T13:18:11.378Z,573.3
2022-12-01T13:19:13.854Z,573.9
2022-12-01T13:20:16.477Z,573.6
2022-12-01T13:21:19.200Z,573.5
2022-12-01T13:22:21.744Z,573.7
2022-12-01T13:23:24.233Z,573.6
2022-12-01T13:24:26.720Z,573.2
2022-12-01T13:25:29.352Z,573.4
2022-12-01T13:26:31.285Z,573.2
2022-12-01T13:27:33.768Z,573.9
2022-12-01T13:28:36.290Z,573.8
2022-12-01T13:30:43.760Z,573.8
2022-12-01T13:31:46.562Z,573.7
2022-12-01T13:32:49.129Z,573.6
2022-12-01T13:33:51.606Z,573.6
2022-12-01T13:34:53.825Z,573.9
2022-12-01T13:37:01.009Z,573.7
2022-12-01T13:38:02.740Z,573.9
2022-12-01T13:39:04.960Z,574
2022-12-01T13:40:07.463Z,574.1
2022-12-01T13:41:10.088Z,574.1
2022-12-01T13:42:12.590Z,574.2
2022-12-01T13:43:14.808Z,574.2
2022-12-01T13:45:22.276Z,574.2
2022-12-01T13:46:24.936Z,574.2
2022-12-01T13:47:27.470Z,574.1
2022-12-01T13:48:29.692Z,574
2022-12-01T13:50:36.908Z,574.4
2022-12-01T13:51:38.820Z,574.4
2022-12-01T13:52:41.028Z,573.9
2022-12-01T13:53:43.260Z,574.1
2022-12-01T13:54:45.751Z,573.8
2022-12-01T13:55:47.953Z,574.2
2022-12-01T13:56:50.577Z,574.5